sensor_id;sensor_type;location;lat;lon;timestamp;P1;durP1;ratioP1;P2;durP2;ratioP2
79204;SDS011;68632;47.512;19.104;2024-01-15T00:00:00;50.92;;;26.98;;
79204;SDS011;68632;47.512;19.104;2024-01-15T00:01:02;53.58;;;26.52;;
79204;SDS011;68632;47.512;19.104;2024-01-15T00:02:05;54.83;;;27.85;;
79204;SDS011;68632;47.512;19.104;2024-01-15T00:03:08;52.42;;;27.88;;
79204;SDS011;68632;47.512;19.104;2024-01-15T00:04:11;50.65;;;28.58;;
79204;SDS011;68632;47.512;19.104;2024-01-15T00:05:13;55.58;;;28.25;;
79204;SDS011;68632;47.512;19.104;2024-01-15T00:06:16;60.13;;;28.95;;
79204;SDS011;68632;47.512;19.104;2024-01-15T00:07:18;52.47;;;28.02;;
79204;SDS011;68632;47.512;19.104;2024-01-15T00:08:20;54.03;;;26.88;;
79204;SDS011;68632;47.512;19.104;2024-01-15T00:09:22;53.70;;;27.05;;
79204;SDS011;68632;47.512;19.104;2024-01-15T00:10:25;56.63;;;26.90;;
79204;SDS011;68632;47.512;19.104;2024-01-15T00:11:27;53.67;;;28.13;;
79204;SDS011;68632;47.512;19.104;2024-01-15T00:12:29;55.45;;;28.60;;
79204;SDS011;68632;47.512;19.104;2024-01-15T00:13:32;52.53;;;28.63;;
79204;SDS011;68632;47.512;19.104;2024-01-15T00:14:34;55.20;;;27.85;;
79204;SDS011;68632;47.512;19.104;2024-01-15T00:15:36;57.70;;;28.95;;
79204;SDS011;68632;47.512;19.104;2024-01-15T00:16:40;51.42;;;27.35;;
79204;SDS011;68632;47.512;19.104;2024-01-15T00:17:42;50.15;;;27.05;;
79204;SDS011;68632;47.512;19.104;2024-01-15T00:18:44;51.97;;;26.85;;
79204;SDS011;68632;47.512;19.104;2024-01-15T00:19:47;50.33;;;25.92;;
79204;SDS011;68632;47.512;19.104;2024-01-15T00:20:49;54.67;;;28.48;;
79204;SDS011;68632;47.512;19.104;2024-01-15T00:21:51;49.08;;;26.70;;
79204;SDS011;68632;47.512;19.104;2024-01-15T00:22:53;55.75;;;27.88;;
79204;SDS011;68632;47.512;19.104;2024-01-15T00:23:56;52.67;;;27.80;;
79204;SDS011;68632;47.512;19.104;2024-01-15T00:24:58;50.85;;;27.17;;
79204;SDS011;68632;47.512;19.104;2024-01-15T00:26:00;48.75;;;25.85;;
79204;SDS011;68632;47.512;19.104;2024-01-15T00:27:02;56.40;;;27.25;;
79204;SDS011;68632;47.512;19.104;2024-01-15T00:28:05;51.92;;;27.42;;
79204;SDS011;68632;47.512;19.104;2024-01-15T00:29:07;53.42;;;27.63;;
79204;SDS011;68632;47.512;19.104;2024-01-15T00:30:10;58.97;;;29.25;;
79204;SDS011;68632;47.512;19.104;2024-01-15T00:31:13;50.00;;;27.08;;
79204;SDS011;68632;47.512;19.104;2024-01-15T00:32:18;53.67;;;28.15;;
79204;SDS011;68632;47.512;19.104;2024-01-15T00:33:21;54.85;;;27.35;;
79204;SDS011;68632;47.512;19.104;2024-01-15T00:34:23;52.88;;;27.13;;
79204;SDS011;68632;47.512;19.104;2024-01-15T00:35:25;55.20;;;29.15;;
79204;SDS011;68632;47.512;19.104;2024-01-15T00:36:28;60.55;;;29.13;;
79204;SDS011;68632;47.512;19.104;2024-01-15T00:37:30;50.97;;;28.27;;
79204;SDS011;68632;47.512;19.104;2024-01-15T00:38:33;56.45;;;29.20;;
79204;SDS011;68632;47.512;19.104;2024-01-15T00:39:35;54.42;;;27.90;;
79204;SDS011;68632;47.512;19.104;2024-01-15T00:40:37;53.83;;;28.73;;
79204;SDS011;68632;47.512;19.104;2024-01-15T00:41:39;55.78;;;28.50;;
79204;SDS011;68632;47.512;19.104;2024-01-15T00:42:41;50.63;;;26.98;;
79204;SDS011;68632;47.512;19.104;2024-01-15T00:43:45;56.28;;;28.85;;
79204;SDS011;68632;47.512;19.104;2024-01-15T00:44:47;59.60;;;29.98;;
79204;SDS011;68632;47.512;19.104;2024-01-15T00:45:49;59.83;;;28.90;;
79204;SDS011;68632;47.512;19.104;2024-01-15T00:46:52;56.42;;;27.38;;
79204;SDS011;68632;47.512;19.104;2024-01-15T00:47:54;46.25;;;25.77;;
79204;SDS011;68632;47.512;19.104;2024-01-15T00:48:58;54.47;;;30.42;;
79204;SDS011;68632;47.512;19.104;2024-01-15T00:50:01;61.00;;;29.73;;
79204;SDS011;68632;47.512;19.104;2024-01-15T00:51:06;58.20;;;29.23;;
79204;SDS011;68632;47.512;19.104;2024-01-15T00:52:08;57.15;;;29.58;;
79204;SDS011;68632;47.512;19.104;2024-01-15T00:53:10;61.45;;;30.17;;
79204;SDS011;68632;47.512;19.104;2024-01-15T00:54:12;57.75;;;29.38;;
79204;SDS011;68632;47.512;19.104;2024-01-15T00:55:15;59.83;;;31.73;;
79204;SDS011;68632;47.512;19.104;2024-01-15T00:56:17;50.75;;;28.77;;
79204;SDS011;68632;47.512;19.104;2024-01-15T00:57:19;60.92;;;29.48;;
79204;SDS011;68632;47.512;19.104;2024-01-15T00:58:21;52.60;;;29.13;;
79204;SDS011;68632;47.512;19.104;2024-01-15T00:59:23;53.83;;;29.80;;
79204;SDS011;68632;47.512;19.104;2024-01-15T01:00:26;59.17;;;29.75;;
79204;SDS011;68632;47.512;19.104;2024-01-15T01:01:28;55.65;;;29.55;;
79204;SDS011;68632;47.512;19.104;2024-01-15T01:02:31;58.25;;;29.50;;
79204;SDS011;68632;47.512;19.104;2024-01-15T01:03:34;61.33;;;31.00;;
79204;SDS011;68632;47.512;19.104;2024-01-15T01:04:36;55.53;;;30.83;;
79204;SDS011;68632;47.512;19.104;2024-01-15T01:05:38;49.72;;;28.10;;
79204;SDS011;68632;47.512;19.104;2024-01-15T01:06:40;55.08;;;30.25;;
79204;SDS011;68632;47.512;19.104;2024-01-15T01:07:43;62.10;;;29.48;;
79204;SDS011;68632;47.512;19.104;2024-01-15T01:08:45;50.83;;;28.73;;
79204;SDS011;68632;47.512;19.104;2024-01-15T01:09:47;60.47;;;29.23;;
79204;SDS011;68632;47.512;19.104;2024-01-15T01:10:50;56.70;;;29.30;;
79204;SDS011;68632;47.512;19.104;2024-01-15T01:11:52;52.38;;;28.60;;
79204;SDS011;68632;47.512;19.104;2024-01-15T01:12:54;49.53;;;29.63;;
79204;SDS011;68632;47.512;19.104;2024-01-15T01:13:56;57.17;;;29.15;;
79204;SDS011;68632;47.512;19.104;2024-01-15T01:14:59;52.50;;;26.52;;
79204;SDS011;68632;47.512;19.104;2024-01-15T01:16:01;55.95;;;29.00;;
79204;SDS011;68632;47.512;19.104;2024-01-15T01:17:03;57.13;;;28.52;;
79204;SDS011;68632;47.512;19.104;2024-01-15T01:18:05;55.58;;;28.90;;
79204;SDS011;68632;47.512;19.104;2024-01-15T01:19:08;59.70;;;29.25;;
79204;SDS011;68632;47.512;19.104;2024-01-15T01:20:11;56.90;;;29.48;;
79204;SDS011;68632;47.512;19.104;2024-01-15T01:21:15;59.47;;;29.35;;
79204;SDS011;68632;47.512;19.104;2024-01-15T01:22:17;59.20;;;29.70;;
79204;SDS011;68632;47.512;19.104;2024-01-15T01:23:19;53.22;;;28.52;;
79204;SDS011;68632;47.512;19.104;2024-01-15T01:24:21;51.45;;;26.80;;
79204;SDS011;68632;47.512;19.104;2024-01-15T01:25:24;57.97;;;29.55;;
79204;SDS011;68632;47.512;19.104;2024-01-15T01:26:26;55.13;;;28.42;;
79204;SDS011;68632;47.512;19.104;2024-01-15T01:27:28;56.80;;;30.02;;
79204;SDS011;68632;47.512;19.104;2024-01-15T01:28:30;54.05;;;28.02;;
79204;SDS011;68632;47.512;19.104;2024-01-15T01:29:32;52.03;;;27.70;;
79204;SDS011;68632;47.512;19.104;2024-01-15T01:30:35;50.70;;;27.25;;
79204;SDS011;68632;47.512;19.104;2024-01-15T01:31:42;56.10;;;29.77;;
79204;SDS011;68632;47.512;19.104;2024-01-15T01:32:45;60.15;;;29.25;;
79204;SDS011;68632;47.512;19.104;2024-01-15T01:33:47;52.08;;;28.73;;
79204;SDS011;68632;47.512;19.104;2024-01-15T01:34:49;58.20;;;28.83;;
79204;SDS011;68632;47.512;19.104;2024-01-15T01:35:51;50.35;;;28.27;;
79204;SDS011;68632;47.512;19.104;2024-01-15T01:36:54;59.13;;;30.33;;
79204;SDS011;68632;47.512;19.104;2024-01-15T01:37:56;40.33;;;21.48;;
79204;SDS011;68632;47.512;19.104;2024-01-15T01:38:59;50.58;;;27.45;;
79204;SDS011;68632;47.512;19.104;2024-01-15T01:40:01;55.80;;;31.30;;
79204;SDS011;68632;47.512;19.104;2024-01-15T01:41:03;58.63;;;29.83;;
79204;SDS011;68632;47.512;19.104;2024-01-15T01:42:05;54.50;;;28.02;;
79204;SDS011;68632;47.512;19.104;2024-01-15T01:43:08;52.10;;;26.10;;
79204;SDS011;68632;47.512;19.104;2024-01-15T01:44:11;61.30;;;28.45;;
79204;SDS011;68632;47.512;19.104;2024-01-15T01:45:13;51.97;;;28.20;;
79204;SDS011;68632;47.512;19.104;2024-01-15T01:46:15;52.50;;;25.63;;
79204;SDS011;68632;47.512;19.104;2024-01-15T01:47:17;52.00;;;27.17;;
79204;SDS011;68632;47.512;19.104;2024-01-15T01:48:20;58.90;;;30.67;;
79204;SDS011;68632;47.512;19.104;2024-01-15T01:49:22;52.22;;;28.15;;
79204;SDS011;68632;47.512;19.104;2024-01-15T01:50:25;56.10;;;29.20;;
79204;SDS011;68632;47.512;19.104;2024-01-15T01:51:28;54.38;;;28.50;;
79204;SDS011;68632;47.512;19.104;2024-01-15T01:52:30;60.05;;;30.05;;
79204;SDS011;68632;47.512;19.104;2024-01-15T01:53:33;55.40;;;28.65;;
79204;SDS011;68632;47.512;19.104;2024-01-15T01:54:36;60.20;;;31.10;;
79204;SDS011;68632;47.512;19.104;2024-01-15T01:55:39;60.97;;;31.00;;
79204;SDS011;68632;47.512;19.104;2024-01-15T01:56:42;55.90;;;29.23;;
79204;SDS011;68632;47.512;19.104;2024-01-15T01:57:44;63.70;;;29.98;;
79204;SDS011;68632;47.512;19.104;2024-01-15T01:58:46;61.55;;;32.08;;
79204;SDS011;68632;47.512;19.104;2024-01-15T01:59:49;61.50;;;33.85;;
79204;SDS011;68632;47.512;19.104;2024-01-15T02:00:52;63.70;;;32.25;;
79204;SDS011;68632;47.512;19.104;2024-01-15T02:01:55;58.88;;;32.05;;
79204;SDS011;68632;47.512;19.104;2024-01-15T02:02:57;64.68;;;32.47;;
79204;SDS011;68632;47.512;19.104;2024-01-15T02:04:00;62.55;;;32.08;;
79204;SDS011;68632;47.512;19.104;2024-01-15T02:05:03;59.75;;;32.30;;
79204;SDS011;68632;47.512;19.104;2024-01-15T02:06:06;67.80;;;31.73;;
79204;SDS011;68632;47.512;19.104;2024-01-15T02:07:08;56.75;;;30.75;;
79204;SDS011;68632;47.512;19.104;2024-01-15T02:08:11;60.95;;;32.42;;
79204;SDS011;68632;47.512;19.104;2024-01-15T02:09:14;63.60;;;29.92;;
79204;SDS011;68632;47.512;19.104;2024-01-15T02:10:17;60.03;;;31.35;;
79204;SDS011;68632;47.512;19.104;2024-01-15T02:11:19;63.58;;;31.88;;
79204;SDS011;68632;47.512;19.104;2024-01-15T02:12:21;62.05;;;33.00;;
79204;SDS011;68632;47.512;19.104;2024-01-15T02:13:24;60.75;;;33.33;;
79204;SDS011;68632;47.512;19.104;2024-01-15T02:14:26;67.53;;;33.70;;
79204;SDS011;68632;47.512;19.104;2024-01-15T02:15:28;66.70;;;33.88;;
79204;SDS011;68632;47.512;19.104;2024-01-15T02:16:31;64.85;;;33.58;;
79204;SDS011;68632;47.512;19.104;2024-01-15T02:17:33;63.38;;;30.80;;
79204;SDS011;68632;47.512;19.104;2024-01-15T02:18:41;58.33;;;30.58;;
79204;SDS011;68632;47.512;19.104;2024-01-15T02:19:44;53.47;;;29.35;;
79204;SDS011;68632;47.512;19.104;2024-01-15T02:20:47;48.08;;;28.83;;
79204;SDS011;68632;47.512;19.104;2024-01-15T02:21:49;62.85;;;32.40;;
79204;SDS011;68632;47.512;19.104;2024-01-15T02:22:51;58.30;;;30.75;;
79204;SDS011;68632;47.512;19.104;2024-01-15T02:23:54;61.22;;;33.15;;
79204;SDS011;68632;47.512;19.104;2024-01-15T02:24:56;58.45;;;30.50;;
79204;SDS011;68632;47.512;19.104;2024-01-15T02:25:59;66.05;;;33.55;;
79204;SDS011;68632;47.512;19.104;2024-01-15T02:27:01;64.28;;;31.33;;
79204;SDS011;68632;47.512;19.104;2024-01-15T02:28:03;56.05;;;31.10;;
79204;SDS011;68632;47.512;19.104;2024-01-15T02:29:09;55.70;;;29.65;;
79204;SDS011;68632;47.512;19.104;2024-01-15T02:30:12;57.80;;;32.47;;
79204;SDS011;68632;47.512;19.104;2024-01-15T02:31:14;61.53;;;32.53;;
79204;SDS011;68632;47.512;19.104;2024-01-15T02:32:17;69.47;;;33.42;;
79204;SDS011;68632;47.512;19.104;2024-01-15T02:33:19;55.92;;;32.20;;
79204;SDS011;68632;47.512;19.104;2024-01-15T02:34:21;62.75;;;32.83;;
79204;SDS011;68632;47.512;19.104;2024-01-15T02:35:24;63.40;;;32.15;;
79204;SDS011;68632;47.512;19.104;2024-01-15T02:36:26;59.05;;;33.38;;
79204;SDS011;68632;47.512;19.104;2024-01-15T02:37:28;67.35;;;32.20;;
79204;SDS011;68632;47.512;19.104;2024-01-15T02:38:31;58.50;;;32.38;;
79204;SDS011;68632;47.512;19.104;2024-01-15T02:39:33;61.92;;;31.48;;
79204;SDS011;68632;47.512;19.104;2024-01-15T02:40:35;66.82;;;32.67;;
79204;SDS011;68632;47.512;19.104;2024-01-15T02:41:37;60.83;;;29.92;;
79204;SDS011;68632;47.512;19.104;2024-01-15T02:42:40;66.60;;;33.95;;
79204;SDS011;68632;47.512;19.104;2024-01-15T02:43:42;61.63;;;36.50;;
79204;SDS011;68632;47.512;19.104;2024-01-15T02:44:44;67.38;;;33.65;;
79204;SDS011;68632;47.512;19.104;2024-01-15T02:45:46;62.45;;;33.17;;
79204;SDS011;68632;47.512;19.104;2024-01-15T02:46:49;68.63;;;35.13;;
79204;SDS011;68632;47.512;19.104;2024-01-15T02:47:51;71.13;;;35.22;;
79204;SDS011;68632;47.512;19.104;2024-01-15T02:48:54;65.65;;;33.65;;
79204;SDS011;68632;47.512;19.104;2024-01-15T02:49:56;67.40;;;34.53;;
79204;SDS011;68632;47.512;19.104;2024-01-15T02:50:58;65.28;;;34.25;;
79204;SDS011;68632;47.512;19.104;2024-01-15T02:52:00;60.65;;;33.42;;
79204;SDS011;68632;47.512;19.104;2024-01-15T02:53:03;64.78;;;33.03;;
79204;SDS011;68632;47.512;19.104;2024-01-15T02:54:05;61.75;;;32.92;;
79204;SDS011;68632;47.512;19.104;2024-01-15T02:55:07;65.78;;;31.55;;
79204;SDS011;68632;47.512;19.104;2024-01-15T02:56:10;65.50;;;33.30;;
79204;SDS011;68632;47.512;19.104;2024-01-15T02:57:12;63.80;;;32.58;;
79204;SDS011;68632;47.512;19.104;2024-01-15T02:58:14;64.82;;;33.08;;
79204;SDS011;68632;47.512;19.104;2024-01-15T02:59:16;60.97;;;33.75;;
79204;SDS011;68632;47.512;19.104;2024-01-15T03:00:19;70.05;;;34.55;;
79204;SDS011;68632;47.512;19.104;2024-01-15T03:01:21;70.03;;;33.05;;
79204;SDS011;68632;47.512;19.104;2024-01-15T03:02:24;66.22;;;32.55;;
79204;SDS011;68632;47.512;19.104;2024-01-15T03:03:26;61.05;;;34.40;;
79204;SDS011;68632;47.512;19.104;2024-01-15T03:04:28;62.10;;;31.48;;
79204;SDS011;68632;47.512;19.104;2024-01-15T03:05:31;61.85;;;32.95;;
79204;SDS011;68632;47.512;19.104;2024-01-15T03:06:33;62.00;;;31.90;;
79204;SDS011;68632;47.512;19.104;2024-01-15T03:07:35;57.35;;;30.65;;
79204;SDS011;68632;47.512;19.104;2024-01-15T03:08:37;62.05;;;31.02;;
79204;SDS011;68632;47.512;19.104;2024-01-15T03:09:40;64.70;;;32.75;;
79204;SDS011;68632;47.512;19.104;2024-01-15T03:10:42;67.80;;;34.38;;
79204;SDS011;68632;47.512;19.104;2024-01-15T03:11:44;62.60;;;32.75;;
79204;SDS011;68632;47.512;19.104;2024-01-15T03:12:46;59.05;;;29.88;;
79204;SDS011;68632;47.512;19.104;2024-01-15T03:13:49;60.47;;;32.45;;
79204;SDS011;68632;47.512;19.104;2024-01-15T03:14:51;58.30;;;32.28;;
79204;SDS011;68632;47.512;19.104;2024-01-15T03:15:53;60.08;;;32.58;;
79204;SDS011;68632;47.512;19.104;2024-01-15T03:16:55;64.05;;;31.40;;
79204;SDS011;68632;47.512;19.104;2024-01-15T03:17:57;64.28;;;31.85;;
79204;SDS011;68632;47.512;19.104;2024-01-15T03:19:00;63.63;;;33.90;;
79204;SDS011;68632;47.512;19.104;2024-01-15T03:20:03;65.30;;;31.95;;
79204;SDS011;68632;47.512;19.104;2024-01-15T03:21:06;67.65;;;34.58;;
79204;SDS011;68632;47.512;19.104;2024-01-15T03:22:08;69.53;;;33.08;;
79204;SDS011;68632;47.512;19.104;2024-01-15T03:23:10;64.15;;;32.67;;
79204;SDS011;68632;47.512;19.104;2024-01-15T03:24:13;62.13;;;31.30;;
79204;SDS011;68632;47.512;19.104;2024-01-15T03:25:15;67.88;;;31.77;;
79204;SDS011;68632;47.512;19.104;2024-01-15T03:26:17;57.17;;;30.65;;
79204;SDS011;68632;47.512;19.104;2024-01-15T03:27:19;64.20;;;30.75;;
79204;SDS011;68632;47.512;19.104;2024-01-15T03:28:21;62.22;;;32.15;;
79204;SDS011;68632;47.512;19.104;2024-01-15T03:29:24;66.88;;;32.20;;
79204;SDS011;68632;47.512;19.104;2024-01-15T03:30:26;58.28;;;32.67;;
79204;SDS011;68632;47.512;19.104;2024-01-15T03:31:28;59.70;;;32.00;;
79204;SDS011;68632;47.512;19.104;2024-01-15T03:32:31;68.47;;;33.70;;
79204;SDS011;68632;47.512;19.104;2024-01-15T03:33:33;62.97;;;32.65;;
79204;SDS011;68632;47.512;19.104;2024-01-15T03:34:35;66.13;;;32.53;;
79204;SDS011;68632;47.512;19.104;2024-01-15T03:35:38;70.88;;;33.42;;
79204;SDS011;68632;47.512;19.104;2024-01-15T03:36:40;63.38;;;32.72;;
79204;SDS011;68632;47.512;19.104;2024-01-15T03:37:42;65.18;;;34.42;;
79204;SDS011;68632;47.512;19.104;2024-01-15T03:38:44;57.65;;;30.60;;
79204;SDS011;68632;47.512;19.104;2024-01-15T03:39:47;66.85;;;32.92;;
79204;SDS011;68632;47.512;19.104;2024-01-15T03:40:49;67.80;;;33.00;;
79204;SDS011;68632;47.512;19.104;2024-01-15T03:41:52;69.40;;;34.60;;
79204;SDS011;68632;47.512;19.104;2024-01-15T03:42:54;64.68;;;33.53;;
79204;SDS011;68632;47.512;19.104;2024-01-15T03:43:56;68.00;;;35.47;;
79204;SDS011;68632;47.512;19.104;2024-01-15T03:44:59;63.33;;;33.78;;
79204;SDS011;68632;47.512;19.104;2024-01-15T03:46:01;66.18;;;32.75;;
79204;SDS011;68632;47.512;19.104;2024-01-15T03:47:04;64.63;;;31.90;;
79204;SDS011;68632;47.512;19.104;2024-01-15T03:48:06;63.38;;;31.42;;
79204;SDS011;68632;47.512;19.104;2024-01-15T03:49:08;65.32;;;34.20;;
79204;SDS011;68632;47.512;19.104;2024-01-15T03:50:11;62.58;;;33.63;;
79204;SDS011;68632;47.512;19.104;2024-01-15T03:51:15;66.82;;;32.90;;
79204;SDS011;68632;47.512;19.104;2024-01-15T03:52:18;62.63;;;32.72;;
79204;SDS011;68632;47.512;19.104;2024-01-15T03:53:21;58.88;;;31.70;;
79204;SDS011;68632;47.512;19.104;2024-01-15T03:54:23;62.92;;;33.13;;
79204;SDS011;68632;47.512;19.104;2024-01-15T03:55:25;60.25;;;31.85;;
79204;SDS011;68632;47.512;19.104;2024-01-15T03:56:28;55.40;;;29.90;;
79204;SDS011;68632;47.512;19.104;2024-01-15T03:57:30;57.53;;;30.10;;
79204;SDS011;68632;47.512;19.104;2024-01-15T03:58:33;55.90;;;27.60;;
79204;SDS011;68632;47.512;19.104;2024-01-15T03:59:35;62.50;;;31.38;;
79204;SDS011;68632;47.512;19.104;2024-01-15T04:00:37;55.63;;;30.20;;
79204;SDS011;68632;47.512;19.104;2024-01-15T04:01:39;55.63;;;28.83;;
79204;SDS011;68632;47.512;19.104;2024-01-15T04:02:41;67.07;;;33.00;;
79204;SDS011;68632;47.512;19.104;2024-01-15T04:03:44;59.90;;;31.85;;
79204;SDS011;68632;47.512;19.104;2024-01-15T04:04:46;59.70;;;31.90;;
79204;SDS011;68632;47.512;19.104;2024-01-15T04:05:48;61.33;;;31.13;;
79204;SDS011;68632;47.512;19.104;2024-01-15T04:06:51;59.45;;;30.50;;
79204;SDS011;68632;47.512;19.104;2024-01-15T04:07:53;63.20;;;33.33;;
79204;SDS011;68632;47.512;19.104;2024-01-15T04:08:55;61.42;;;31.20;;
79204;SDS011;68632;47.512;19.104;2024-01-15T04:09:57;65.80;;;33.03;;
79204;SDS011;68632;47.512;19.104;2024-01-15T04:10:59;66.75;;;33.83;;
79204;SDS011;68632;47.512;19.104;2024-01-15T04:12:03;63.03;;;31.13;;
79204;SDS011;68632;47.512;19.104;2024-01-15T04:13:05;60.08;;;33.13;;
79204;SDS011;68632;47.512;19.104;2024-01-15T04:14:07;63.08;;;32.10;;
79204;SDS011;68632;47.512;19.104;2024-01-15T04:15:10;63.90;;;35.08;;
79204;SDS011;68632;47.512;19.104;2024-01-15T04:16:12;59.70;;;32.38;;
79204;SDS011;68632;47.512;19.104;2024-01-15T04:17:14;61.33;;;32.75;;
79204;SDS011;68632;47.512;19.104;2024-01-15T04:18:16;65.50;;;33.78;;
79204;SDS011;68632;47.512;19.104;2024-01-15T04:19:19;67.38;;;34.75;;
79204;SDS011;68632;47.512;19.104;2024-01-15T04:20:22;67.18;;;33.08;;
79204;SDS011;68632;47.512;19.104;2024-01-15T04:21:26;68.20;;;34.60;;
79204;SDS011;68632;47.512;19.104;2024-01-15T04:22:28;66.18;;;34.70;;
79204;SDS011;68632;47.512;19.104;2024-01-15T04:23:30;71.28;;;34.53;;
79204;SDS011;68632;47.512;19.104;2024-01-15T04:24:33;68.20;;;32.78;;
79204;SDS011;68632;47.512;19.104;2024-01-15T04:25:35;68.63;;;33.05;;
79204;SDS011;68632;47.512;19.104;2024-01-15T04:26:37;63.00;;;31.95;;
79204;SDS011;68632;47.512;19.104;2024-01-15T04:27:39;66.15;;;34.85;;
79204;SDS011;68632;47.512;19.104;2024-01-15T04:28:42;61.95;;;32.08;;
79204;SDS011;68632;47.512;19.104;2024-01-15T04:29:44;66.10;;;35.95;;
79204;SDS011;68632;47.512;19.104;2024-01-15T04:30:46;65.30;;;34.17;;
79204;SDS011;68632;47.512;19.104;2024-01-15T04:31:48;62.45;;;34.42;;
79204;SDS011;68632;47.512;19.104;2024-01-15T04:32:51;73.18;;;34.83;;
79204;SDS011;68632;47.512;19.104;2024-01-15T04:33:53;69.97;;;36.80;;
79204;SDS011;68632;47.512;19.104;2024-01-15T04:34:56;72.88;;;38.35;;
79204;SDS011;68632;47.512;19.104;2024-01-15T04:36:01;66.03;;;32.95;;
79204;SDS011;68632;47.512;19.104;2024-01-15T04:37:04;68.15;;;34.60;;
79204;SDS011;68632;47.512;19.104;2024-01-15T04:38:06;64.65;;;34.53;;
79204;SDS011;68632;47.512;19.104;2024-01-15T04:39:08;68.72;;;36.97;;
79204;SDS011;68632;47.512;19.104;2024-01-15T04:40:11;69.75;;;35.92;;
79204;SDS011;68632;47.512;19.104;2024-01-15T04:41:13;65.50;;;35.33;;
79204;SDS011;68632;47.512;19.104;2024-01-15T04:42:15;67.25;;;33.17;;
79204;SDS011;68632;47.512;19.104;2024-01-15T04:43:18;79.18;;;37.60;;
79204;SDS011;68632;47.512;19.104;2024-01-15T04:44:20;68.68;;;34.80;;
79204;SDS011;68632;47.512;19.104;2024-01-15T04:45:22;65.03;;;34.38;;
79204;SDS011;68632;47.512;19.104;2024-01-15T04:46:30;67.88;;;33.28;;
79204;SDS011;68632;47.512;19.104;2024-01-15T04:47:32;67.57;;;36.17;;
79204;SDS011;68632;47.512;19.104;2024-01-15T04:48:34;69.38;;;34.97;;
79204;SDS011;68632;47.512;19.104;2024-01-15T04:49:37;67.63;;;35.28;;
79204;SDS011;68632;47.512;19.104;2024-01-15T04:50:39;77.05;;;36.15;;
79204;SDS011;68632;47.512;19.104;2024-01-15T04:51:41;68.93;;;37.13;;
79204;SDS011;68632;47.512;19.104;2024-01-15T04:52:43;66.13;;;33.72;;
79204;SDS011;68632;47.512;19.104;2024-01-15T04:53:46;70.05;;;37.67;;
79204;SDS011;68632;47.512;19.104;2024-01-15T04:54:48;74.93;;;35.22;;
79204;SDS011;68632;47.512;19.104;2024-01-15T04:55:50;70.10;;;35.83;;
79204;SDS011;68632;47.512;19.104;2024-01-15T04:56:52;68.47;;;35.90;;
79204;SDS011;68632;47.512;19.104;2024-01-15T04:57:54;61.92;;;33.03;;
79204;SDS011;68632;47.512;19.104;2024-01-15T04:58:57;72.95;;;35.65;;
79204;SDS011;68632;47.512;19.104;2024-01-15T04:59:59;63.70;;;36.03;;
79204;SDS011;68632;47.512;19.104;2024-01-15T05:01:01;68.57;;;36.47;;
79204;SDS011;68632;47.512;19.104;2024-01-15T05:02:03;69.90;;;34.97;;
79204;SDS011;68632;47.512;19.104;2024-01-15T05:03:05;64.20;;;33.92;;
79204;SDS011;68632;47.512;19.104;2024-01-15T05:04:08;67.63;;;32.53;;
79204;SDS011;68632;47.512;19.104;2024-01-15T05:05:10;59.05;;;33.08;;
79204;SDS011;68632;47.512;19.104;2024-01-15T05:06:12;66.10;;;34.38;;
79204;SDS011;68632;47.512;19.104;2024-01-15T05:07:15;66.20;;;33.45;;
79204;SDS011;68632;47.512;19.104;2024-01-15T05:08:17;66.07;;;35.72;;
79204;SDS011;68632;47.512;19.104;2024-01-15T05:09:19;71.75;;;36.78;;
79204;SDS011;68632;47.512;19.104;2024-01-15T05:10:21;64.63;;;31.92;;
79204;SDS011;68632;47.512;19.104;2024-01-15T05:11:23;64.80;;;34.03;;
79204;SDS011;68632;47.512;19.104;2024-01-15T05:12:25;65.40;;;32.58;;
79204;SDS011;68632;47.512;19.104;2024-01-15T05:13:28;66.60;;;33.03;;
79204;SDS011;68632;47.512;19.104;2024-01-15T05:14:30;70.82;;;37.50;;
79204;SDS011;68632;47.512;19.104;2024-01-15T05:15:32;72.25;;;36.28;;
79204;SDS011;68632;47.512;19.104;2024-01-15T05:16:34;68.95;;;36.28;;
79204;SDS011;68632;47.512;19.104;2024-01-15T05:17:36;63.33;;;34.08;;
79204;SDS011;68632;47.512;19.104;2024-01-15T05:18:39;65.43;;;33.97;;
79204;SDS011;68632;47.512;19.104;2024-01-15T05:19:41;64.35;;;32.53;;
79204;SDS011;68632;47.512;19.104;2024-01-15T05:20:44;65.38;;;35.30;;
79204;SDS011;68632;47.512;19.104;2024-01-15T05:21:46;66.25;;;34.92;;
79204;SDS011;68632;47.512;19.104;2024-01-15T05:22:48;67.28;;;33.55;;
79204;SDS011;68632;47.512;19.104;2024-01-15T05:23:50;68.43;;;34.60;;
79204;SDS011;68632;47.512;19.104;2024-01-15T05:24:52;64.13;;;33.20;;
79204;SDS011;68632;47.512;19.104;2024-01-15T05:25:55;71.57;;;33.90;;
79204;SDS011;68632;47.512;19.104;2024-01-15T05:26:57;62.78;;;37.83;;
79204;SDS011;68632;47.512;19.104;2024-01-15T05:27:59;69.72;;;33.72;;
79204;SDS011;68632;47.512;19.104;2024-01-15T05:29:01;60.78;;;31.98;;
79204;SDS011;68632;47.512;19.104;2024-01-15T05:30:04;66.93;;;32.88;;
79204;SDS011;68632;47.512;19.104;2024-01-15T05:31:06;63.15;;;33.92;;
79204;SDS011;68632;47.512;19.104;2024-01-15T05:32:09;63.13;;;32.00;;
79204;SDS011;68632;47.512;19.104;2024-01-15T05:33:11;65.07;;;33.33;;
79204;SDS011;68632;47.512;19.104;2024-01-15T05:34:14;62.03;;;34.08;;
79204;SDS011;68632;47.512;19.104;2024-01-15T05:35:16;59.58;;;32.17;;
79204;SDS011;68632;47.512;19.104;2024-01-15T05:36:18;59.70;;;32.50;;
79204;SDS011;68632;47.512;19.104;2024-01-15T05:37:20;62.75;;;31.42;;
79204;SDS011;68632;47.512;19.104;2024-01-15T05:38:22;64.82;;;33.58;;
79204;SDS011;68632;47.512;19.104;2024-01-15T05:39:25;66.93;;;33.45;;
79204;SDS011;68632;47.512;19.104;2024-01-15T05:40:27;61.38;;;31.70;;
79204;SDS011;68632;47.512;19.104;2024-01-15T05:41:29;61.75;;;32.65;;
79204;SDS011;68632;47.512;19.104;2024-01-15T05:42:31;64.13;;;31.15;;
79204;SDS011;68632;47.512;19.104;2024-01-15T05:43:34;54.85;;;31.50;;
79204;SDS011;68632;47.512;19.104;2024-01-15T05:44:36;64.93;;;33.17;;
79204;SDS011;68632;47.512;19.104;2024-01-15T05:45:38;60.58;;;32.42;;
79204;SDS011;68632;47.512;19.104;2024-01-15T05:46:41;61.58;;;32.20;;
79204;SDS011;68632;47.512;19.104;2024-01-15T05:47:43;57.53;;;31.52;;
79204;SDS011;68632;47.512;19.104;2024-01-15T05:48:46;56.28;;;31.75;;
79204;SDS011;68632;47.512;19.104;2024-01-15T05:49:48;59.40;;;31.20;;
79204;SDS011;68632;47.512;19.104;2024-01-15T05:50:50;61.33;;;31.63;;
79204;SDS011;68632;47.512;19.104;2024-01-15T05:51:52;56.03;;;30.15;;
79204;SDS011;68632;47.512;19.104;2024-01-15T05:52:55;63.67;;;32.90;;
79204;SDS011;68632;47.512;19.104;2024-01-15T05:53:57;62.83;;;31.30;;
79204;SDS011;68632;47.512;19.104;2024-01-15T05:54:59;61.65;;;32.00;;
79204;SDS011;68632;47.512;19.104;2024-01-15T05:56:01;62.90;;;31.73;;
79204;SDS011;68632;47.512;19.104;2024-01-15T05:57:03;60.35;;;32.85;;
79204;SDS011;68632;47.512;19.104;2024-01-15T05:58:06;69.57;;;36.17;;
79204;SDS011;68632;47.512;19.104;2024-01-15T05:59:08;58.75;;;34.17;;